Time;durP1;ratioP1;P1;durP2;ratioP2;P2;SDS_P1;SDS_P2;PMS_P1;PMS_P2;Temp;Humidity;BMP_temperature;BMP_pressure;BME280_temperature;BME280_humidity;BME280_pressure;Samples;Min_cycle;Max_cycle;Signal;HPM_P1;HPM_P2
2023/11/20 00:00:38;;;;;;;2.90;2.70;;;5.50;99.90;;;;;;5043138;28;20195;-75
2023/11/20 00:03:05;;;;;;;3.17;2.97;;;5.50;99.90;;;;;;5040063;28;21895;-75
2023/11/20 00:05:33;;;;;;;3.17;2.97;;;5.50;99.90;;;;;;5043612;28;20557;-76
2023/11/20 00:08:00;;;;;;;2.88;2.78;;;5.50;99.90;;;;;;5043175;28;20218;-75
2023/11/20 00:10:27;;;;;;;3.03;2.83;;;5.50;99.90;;;;;;5042521;28;20272;-75
2023/11/20 00:12:54;;;;;;;2.92;2.72;;;5.50;99.90;;;;;;5041782;28;21689;-75
2023/11/20 00:15:21;;;;;;;2.85;2.65;;;5.50;99.90;;;;;;5038634;28;20202;-76
2023/11/20 00:17:48;;;;;;;3.47;3.28;;;5.50;99.90;;;;;;5042740;28;20219;-74
2023/11/20 00:20:15;;;;;;;2.97;2.78;;;5.50;99.90;;;;;;5041523;28;20203;-74
2023/11/20 00:22:46;;;;;;;2.78;2.58;;;5.40;99.90;;;;;;5041917;28;20272;-73
2023/11/20 00:25:13;;;;;;;3.30;3.10;;;5.40;99.90;;;;;;5043081;28;20202;-75
2023/11/20 00:27:40;;;;;;;2.88;2.78;;;5.30;99.90;;;;;;5041408;28;20740;-75
2023/11/20 00:30:08;;;;;;;2.95;2.75;;;5.30;99.90;;;;;;5041153;28;20206;-75
2023/11/20 00:32:35;;;;;;;2.90;2.70;;;5.30;99.90;;;;;;5043374;28;20238;-76
2023/11/20 00:35:02;;;;;;;3.10;2.83;;;5.30;99.90;;;;;;5041080;28;20227;-76
2023/11/20 00:37:29;;;;;;;2.95;2.75;;;5.30;99.90;;;;;;5044050;28;20813;-75
2023/11/20 00:39:57;;;;;;;2.63;2.53;;;5.30;99.90;;;;;;5040882;28;20248;-74
2023/11/20 00:42:24;;;;;;;3.00;2.80;;;5.40;99.90;;;;;;5041875;28;20226;-76
2023/11/20 00:44:51;;;;;;;2.90;2.70;;;5.30;99.90;;;;;;5041416;28;20229;-75
2023/11/20 00:47:18;;;;;;;3.00;2.80;;;5.30;99.90;;;;;;5040081;28;20281;-74
2023/11/20 00:49:45;;;;;;;2.97;2.75;;;5.30;99.90;;;;;;5040663;28;20245;-75
2023/11/20 00:52:12;;;;;;;2.50;2.40;;;5.30;99.90;;;;;;5045054;28;20832;-76
2023/11/20 00:54:40;;;;;;;3.20;3.00;;;5.30;99.90;;;;;;5042894;28;20213;-75
2023/11/20 00:57:08;;;;;;;3.17;2.97;;;5.30;99.90;;;;;;5041586;28;21016;-74
2023/11/20 00:59:35;;;;;;;2.90;2.70;;;5.20;99.90;;;;;;5040366;28;20679;-75
2023/11/20 01:02:02;;;;;;;3.13;2.92;;;5.20;99.90;;;;;;5041844;28;20232;-76
2023/11/20 01:04:29;;;;;;;3.08;2.88;;;5.20;99.90;;;;;;5041154;28;20556;-75
2023/11/20 01:06:56;;;;;;;2.85;2.65;;;5.20;99.90;;;;;;5044362;28;20222;-75
2023/11/20 01:09:23;;;;;;;3.00;2.80;;;5.10;99.90;;;;;;5043025;28;20191;-76
2023/11/20 01:11:50;;;;;;;3.20;3.00;;;5.10;99.90;;;;;;5041650;28;20284;-75
2023/11/20 01:14:18;;;;;;;2.88;2.70;;;5.10;99.90;;;;;;5043116;28;20846;-75
2023/11/20 01:16:45;;;;;;;3.20;3.00;;;5.10;99.90;;;;;;5039393;28;20269;-76
2023/11/20 01:19:12;;;;;;;3.13;2.92;;;5.10;99.90;;;;;;5042026;28;20237;-75
2023/11/20 01:21:42;;;;;;;3.47;3.28;;;5.10;99.90;;;;;;5043876;28;20202;-75
2023/11/20 01:24:09;;;;;;;2.50;2.40;;;5.10;99.90;;;;;;5043323;28;20760;-74
2023/11/20 01:26:37;;;;;;;3.42;3.13;;;5.10;99.90;;;;;;5041274;28;20264;-75
2023/11/20 01:29:04;;;;;;;2.97;2.78;;;5.10;99.90;;;;;;5043035;28;20290;-75
2023/11/20 01:31:32;;;;;;;3.17;3.00;;;5.10;99.90;;;;;;5044043;28;20203;-74
2023/11/20 01:33:59;;;;;;;3.13;2.92;;;5.10;99.90;;;;;;5043291;28;20222;-75
2023/11/20 01:36:26;;;;;;;3.03;2.83;;;5.10;99.90;;;;;;5040509;28;20261;-75
2023/11/20 01:38:53;;;;;;;3.25;3.05;;;5.10;99.90;;;;;;5044482;28;20296;-76
2023/11/20 01:41:20;;;;;;;3.30;3.10;;;5.00;99.90;;;;;;5042884;28;20203;-75
2023/11/20 01:43:47;;;;;;;3.30;3.10;;;5.00;99.90;;;;;;5043192;28;20215;-74
2023/11/20 01:46:15;;;;;;;3.20;3.00;;;5.00;99.90;;;;;;5042440;28;20191;-74
2023/11/20 01:48:45;;;;;;;3.40;3.20;;;5.00;99.90;;;;;;5043396;28;20215;-74
2023/11/20 01:51:12;;;;;;;3.70;3.40;;;5.00;99.90;;;;;;5043086;28;20289;-74
2023/11/20 01:53:41;;;;;;;2.97;2.78;;;5.00;99.90;;;;;;5042678;28;20298;-75
2023/11/20 01:56:10;;;;;;;3.08;2.88;;;4.90;99.90;;;;;;5044730;28;20199;-75
2023/11/20 01:58:37;;;;;;;3.45;3.15;;;4.90;99.90;;;;;;5044706;28;20223;-74
2023/11/20 02:01:04;;;;;;;3.47;3.28;;;4.90;99.90;;;;;;5040514;28;20297;-75
2023/11/20 02:03:33;;;;;;;3.28;3.08;;;4.80;99.90;;;;;;5044511;28;20229;-74
2023/11/20 02:06:01;;;;;;;3.40;3.20;;;4.80;99.90;;;;;;5044740;28;20288;-76
2023/11/20 02:08:29;;;;;;;3.17;2.97;;;4.80;99.90;;;;;;5037291;28;20257;-74
2023/11/20 02:10:58;;;;;;;3.45;3.25;;;4.80;99.90;;;;;;5041446;28;20203;-74
2023/11/20 02:13:26;;;;;;;3.17;2.97;;;4.70;99.90;;;;;;5044612;28;20884;-72
2023/11/20 02:15:53;;;;;;;3.20;3.00;;;4.70;99.90;;;;;;5041733;28;20203;-75
2023/11/20 02:18:30;;;;;;;3.17;2.97;;;4.70;99.90;;;;;;5041264;28;20899;-74
2023/11/20 02:20:57;;;;;;;2.92;2.72;;;4.70;99.90;;;;;;5043633;28;20263;-74
2023/11/20 02:23:26;;;;;;;3.58;3.28;;;4.70;99.90;;;;;;5038958;28;20252;-75
2023/11/20 02:26:09;;;;;;;3.33;3.05;;;4.70;99.90;;;;;;5041930;28;20199;-75
2023/11/20 02:28:40;;;;;;;3.33;3.13;;;4.70;99.90;;;;;;5043809;28;20257;-74
2023/11/20 02:31:08;;;;;;;3.25;3.05;;;4.70;99.90;;;;;;5043538;28;20301;-74
2023/11/20 02:33:36;;;;;;;3.50;3.20;;;4.70;99.90;;;;;;5043079;28;20768;-76
2023/11/20 02:36:04;;;;;;;3.17;2.97;;;4.70;99.90;;;;;;5041206;28;20289;-75
2023/11/20 02:38:31;;;;;;;3.50;3.30;;;4.70;99.90;;;;;;5037455;28;20222;-74
2023/11/20 02:40:58;;;;;;;3.22;3.03;;;4.70;99.90;;;;;;5044902;28;20290;-74
2023/11/20 02:43:26;;;;;;;3.30;3.10;;;4.60;99.90;;;;;;5041888;28;20273;-73
2023/11/20 02:45:55;;;;;;;3.30;3.10;;;4.70;99.90;;;;;;5041950;28;20199;-76
2023/11/20 02:48:26;;;;;;;3.03;2.83;;;4.70;99.90;;;;;;5044043;28;20222;-74
2023/11/20 02:50:53;;;;;;;3.75;3.50;;;4.60;99.90;;;;;;5042400;28;20199;-74
2023/11/20 02:53:20;;;;;;;3.28;3.08;;;4.70;99.90;;;;;;5042172;28;20288;-74
2023/11/20 02:55:47;;;;;;;3.10;3.00;;;4.60;99.90;;;;;;5041298;28;20656;-74
2023/11/20 02:58:14;;;;;;;3.78;3.58;;;4.60;99.90;;;;;;5042046;28;20223;-75
2023/11/20 03:00:40;;;;;;;3.17;2.97;;;4.60;99.90;;;;;;5041650;28;20264;-74
2023/11/20 03:03:07;;;;;;;3.72;3.40;;;4.60;99.90;;;;;;5042937;28;20277;-73
2023/11/20 03:05:36;;;;;;;3.28;3.08;;;4.60;99.90;;;;;;5043284;28;20911;-76
2023/11/20 03:08:03;;;;;;;3.38;3.17;;;4.60;99.90;;;;;;5040499;28;20309;-74
2023/11/20 03:10:30;;;;;;;3.28;3.05;;;4.60;99.90;;;;;;5040454;28;20210;-74
2023/11/20 03:12:57;;;;;;;3.40;3.10;;;4.60;99.90;;;;;;5039739;28;20244;-75
2023/11/20 03:15:24;;;;;;;3.25;3.05;;;4.60;99.90;;;;;;5044459;28;20269;-75
2023/11/20 03:17:51;;;;;;;2.92;2.72;;;4.60;99.90;;;;;;5042108;28;20215;-75
2023/11/20 03:20:18;;;;;;;3.53;3.33;;;4.50;99.90;;;;;;5039410;28;20199;-75
2023/11/20 03:22:46;;;;;;;3.10;2.90;;;4.50;99.90;;;;;;5043913;28;20503;-75
2023/11/20 03:25:13;;;;;;;3.55;3.30;;;4.50;99.90;;;;;;5046810;28;20223;-75
2023/11/20 03:27:41;;;;;;;3.50;3.30;;;4.50;99.90;;;;;;5044756;28;20219;-74
2023/11/20 03:30:09;;;;;;;3.38;3.17;;;4.50;99.90;;;;;;5044883;28;20269;-74
2023/11/20 03:32:36;;;;;;;3.08;2.88;;;4.50;99.90;;;;;;5045142;28;20314;-74
2023/11/20 03:35:05;;;;;;;3.33;3.13;;;4.50;99.90;;;;;;5046564;28;20286;-75
2023/11/20 03:37:32;;;;;;;3.42;3.22;;;4.50;99.90;;;;;;5046438;28;20276;-75
2023/11/20 03:40:01;;;;;;;3.53;3.33;;;4.50;99.90;;;;;;5045356;28;20249;-75
2023/11/20 03:42:28;;;;;;;3.00;2.80;;;4.50;99.90;;;;;;5047867;28;20309;-74
2023/11/20 03:44:55;;;;;;;3.10;2.90;;;4.50;99.90;;;;;;5045618;28;20820;-72
2023/11/20 03:47:22;;;;;;;3.20;3.03;;;4.50;99.90;;;;;;5046861;28;20647;-75
2023/11/20 03:49:48;;;;;;;3.30;3.10;;;4.50;99.90;;;;;;5046774;28;20191;-75
2023/11/20 03:52:15;;;;;;;3.33;3.13;;;4.40;99.90;;;;;;5049137;28;20357;-76
2023/11/20 03:54:42;;;;;;;3.40;3.20;;;4.50;99.90;;;;;;5044565;28;20265;-75
2023/11/20 03:57:11;;;;;;;3.38;3.17;;;4.40;99.90;;;;;;5046783;28;20215;-76
2023/11/20 03:59:38;;;;;;;3.10;2.90;;;4.40;99.90;;;;;;5043092;28;20203;-76
2023/11/20 04:02:05;;;;;;;3.03;2.90;;;4.40;99.90;;;;;;5042525;28;20273;-76
2023/11/20 04:04:32;;;;;;;3.13;3.03;;;4.40;99.90;;;;;;5044200;28;20207;-75
2023/11/20 04:06:59;;;;;;;3.30;3.10;;;4.40;99.90;;;;;;5045566;28;20724;-75
2023/11/20 04:09:26;;;;;;;3.40;3.20;;;4.40;99.90;;;;;;5046299;28;20195;-75
2023/11/20 04:11:53;;;;;;;3.22;3.03;;;4.40;99.90;;;;;;5043111;28;20280;-76
2023/11/20 04:14:21;;;;;;;3.20;3.00;;;4.40;99.90;;;;;;5048883;28;20264;-74
2023/11/20 04:16:48;;;;;;;3.60;3.40;;;4.40;99.90;;;;;;5044153;28;20261;-75
2023/11/20 04:19:15;;;;;;;3.83;3.63;;;4.40;99.90;;;;;;5045352;28;20199;-75
2023/11/20 04:21:43;;;;;;;3.53;3.33;;;4.40;99.90;;;;;;5042130;28;20199;-75
2023/11/20 04:24:10;;;;;;;3.65;3.45;;;4.40;99.90;;;;;;5044557;28;20780;-74
2023/11/20 04:26:37;;;;;;;3.40;3.13;;;4.40;99.90;;;;;;5043119;28;20268;-75
2023/11/20 04:29:04;;;;;;;3.60;3.40;;;4.40;99.90;;;;;;5044198;28;20288;-75
2023/11/20 04:31:32;;;;;;;3.70;3.50;;;4.40;99.90;;;;;;5044565;28;20724;-73
2023/11/20 04:33:59;;;;;;;3.40;3.20;;;4.40;99.90;;;;;;5044973;28;20516;-75
2023/11/20 04:36:26;;;;;;;3.50;3.30;;;4.40;99.90;;;;;;5043380;28;20245;-75
2023/11/20 04:38:53;;;;;;;3.55;3.35;;;4.40;99.90;;;;;;5043281;28;20275;-75
2023/11/20 04:41:20;;;;;;;3.40;3.20;;;4.30;99.90;;;;;;5045428;28;20199;-75
2023/11/20 04:43:47;;;;;;;3.42;3.22;;;4.30;99.90;;;;;;5044689;28;20309;-75
2023/11/20 04:46:14;;;;;;;3.00;2.90;;;4.30;99.90;;;;;;5042932;28;20206;-75
2023/11/20 04:48:42;;;;;;;2.85;2.65;;;4.30;99.90;;;;;;5044805;28;20669;-76
2023/11/20 04:51:09;;;;;;;3.25;3.05;;;4.30;99.90;;;;;;5044489;28;20665;-74
2023/11/20 04:53:36;;;;;;;3.05;2.85;;;4.40;99.90;;;;;;5043064;28;20725;-74
2023/11/20 04:56:08;;;;;;;3.08;2.88;;;4.30;99.90;;;;;;5043191;28;20195;-74
2023/11/20 04:58:35;;;;;;;3.92;3.65;;;4.40;99.90;;;;;;5044562;28;20687;-74
2023/11/20 05:01:02;;;;;;;3.25;3.05;;;4.40;99.90;;;;;;5043103;28;20253;-74
2023/11/20 05:03:29;;;;;;;3.90;3.63;;;4.40;99.90;;;;;;5042069;28;20268;-74
2023/11/20 05:05:58;;;;;;;3.78;3.50;;;4.30;99.90;;;;;;5042598;28;20763;-75
2023/11/20 05:08:25;;;;;;;3.67;3.47;;;4.30;99.90;;;;;;5042591;28;20293;-76
2023/11/20 05:10:53;;;;;;;3.50;3.30;;;4.30;99.90;;;;;;5044761;28;20199;-74
2023/11/20 05:13:20;;;;;;;3.60;3.33;;;4.30;99.90;;;;;;5045013;28;20666;-75
2023/11/20 05:15:47;;;;;;;3.88;3.60;;;4.30;99.90;;;;;;5043842;28;20249;-75
2023/11/20 05:18:15;;;;;;;3.80;3.50;;;4.30;99.90;;;;;;5041862;28;20246;-75
2023/11/20 05:20:42;;;;;;;4.07;3.67;;;4.30;99.90;;;;;;5042442;28;20203;-75
2023/11/20 05:23:11;;;;;;;4.30;4.00;;;4.30;99.90;;;;;;5044871;28;20230;-74
2023/11/20 05:25:38;;;;;;;3.75;3.55;;;4.30;99.90;;;;;;5042066;28;20473;-75
2023/11/20 05:28:05;;;;;;;4.35;4.05;;;4.20;99.90;;;;;;5039840;28;20215;-76
2023/11/20 05:30:32;;;;;;;4.03;3.72;;;4.30;99.90;;;;;;5042307;28;20229;-75
2023/11/20 05:32:59;;;;;;;3.88;3.63;;;4.20;99.90;;;;;;5042836;28;20222;-75
2023/11/20 05:35:26;;;;;;;3.70;3.50;;;4.20;99.90;;;;;;5042787;28;20199;-75
2023/11/20 05:37:53;;;;;;;3.50;3.30;;;4.20;99.90;;;;;;5041123;28;20257;-75
2023/11/20 05:40:21;;;;;;;3.83;3.53;;;4.20;99.90;;;;;;5043470;28;20609;-75
2023/11/20 05:42:48;;;;;;;3.28;3.08;;;4.20;99.90;;;;;;5042427;28;20230;-74
2023/11/20 05:45:15;;;;;;;3.53;3.30;;;4.20;99.90;;;;;;5041119;28;20222;-76
2023/11/20 05:47:42;;;;;;;4.03;3.83;;;4.20;99.90;;;;;;5042886;28;20302;-74
2023/11/20 05:50:10;;;;;;;3.25;3.05;;;4.20;99.90;;;;;;5043336;28;20203;-75
2023/11/20 05:52:37;;;;;;;3.95;3.67;;;4.20;99.90;;;;;;5044278;28;20253;-75
2023/11/20 05:55:05;;;;;;;3.63;3.38;;;4.20;99.90;;;;;;5040646;28;20198;-75
2023/11/20 05:57:34;;;;;;;4.25;3.97;;;4.10;99.90;;;;;;5044705;28;20215;-75
2023/11/20 06:00:01;;;;;;;4.00;3.70;;;4.10;99.90;;;;;;5043895;28;20202;-75
2023/11/20 06:02:28;;;;;;;3.92;3.63;;;4.10;99.90;;;;;;5041978;28;20300;-75
2023/11/20 06:04:55;;;;;;;4.78;4.47;;;4.10;99.90;;;;;;5043164;28;20260;-75
2023/11/20 06:07:22;;;;;;;4.65;4.35;;;4.10;99.90;;;;;;5046130;28;20234;-75
2023/11/20 06:09:49;;;;;;;4.35;3.95;;;4.10;99.90;;;;;;5043002;28;20887;-74
2023/11/20 06:12:18;;;;;;;4.43;4.03;;;4.00;99.90;;;;;;5043664;28;20222;-75
2023/11/20 06:14:47;;;;;;;3.88;3.60;;;4.00;99.90;;;;;;5042154;28;20744;-75
2023/11/20 06:17:15;;;;;;;4.22;3.92;;;4.00;99.90;;;;;;5046869;28;20284;-75
2023/11/20 06:19:42;;;;;;;4.03;3.78;;;4.00;99.90;;;;;;5046465;28;20206;-75
2023/11/20 06:22:09;;;;;;;4.00;3.70;;;4.10;99.90;;;;;;5050793;28;20231;-75
2023/11/20 06:24:36;;;;;;;4.07;3.60;;;4.10;99.90;;;;;;5047190;28;20218;-75
2023/11/20 06:27:04;;;;;;;3.53;3.33;;;4.10;99.90;;;;;;5043990;28;20295;-76
2023/11/20 06:29:31;;;;;;;3.50;3.30;;;4.10;99.90;;;;;;5042679;28;20207;-76
2023/11/20 06:31:59;;;;;;;3.47;3.28;;;4.10;99.90;;;;;;5043331;28;20272;-75
2023/11/20 06:34:26;;;;;;;4.07;3.78;;;4.10;99.90;;;;;;5041919;28;20219;-76
2023/11/20 06:36:53;;;;;;;4.03;3.78;;;4.00;99.90;;;;;;5041109;28;20231;-75
2023/11/20 06:39:20;;;;;;;3.67;3.47;;;4.00;99.90;;;;;;5041740;28;20199;-76
2023/11/20 06:41:48;;;;;;;4.05;3.75;;;4.00;99.90;;;;;;5037354;28;20256;-74
2023/11/20 06:44:15;;;;;;;5.78;5.25;;;4.00;99.90;;;;;;5041836;28;20214;-75
2023/11/20 06:46:42;;;;;;;6.32;5.72;;;4.00;99.90;;;;;;5040973;28;20207;-75
2023/11/20 06:49:11;;;;;;;6.20;5.70;;;4.00;99.90;;;;;;5040591;28;20202;-75
2023/11/20 06:51:38;;;;;;;6.15;5.65;;;4.10;99.90;;;;;;5041224;28;20202;-76
2023/11/20 06:54:06;;;;;;;5.22;4.82;;;4.10;99.90;;;;;;5041831;28;21347;-75
2023/11/20 06:56:33;;;;;;;4.50;4.20;;;4.10;99.90;;;;;;5041588;28;20202;-75
2023/11/20 06:59:00;;;;;;;5.40;5.00;;;4.30;99.90;;;;;;5046110;28;20207;-75
2023/11/20 07:01:27;;;;;;;5.47;4.47;;;4.60;99.90;;;;;;5044822;28;20210;-73
2023/11/20 07:03:55;;;;;;;5.55;5.05;;;4.70;99.90;;;;;;5039691;28;20223;-75
2023/11/20 07:06:25;;;;;;;4.88;4.57;;;4.70;99.90;;;;;;5040195;28;20360;-76
2023/11/20 07:08:54;;;;;;;5.15;4.68;;;4.60;99.90;;;;;;5037905;28;20305;-76
2023/11/20 07:11:21;;;;;;;5.47;4.97;;;4.60;99.90;;;;;;5040987;28;20731;-76
2023/11/20 07:13:48;;;;;;;4.57;4.28;;;4.60;99.90;;;;;;5040850;28;20268;-76
2023/11/20 07:16:15;;;;;;;4.55;4.25;;;4.50;99.90;;;;;;5041173;28;20202;-75
2023/11/20 07:18:42;;;;;;;4.68;4.38;;;4.50;99.90;;;;;;5039457;28;20287;-76
2023/11/20 07:21:10;;;;;;;4.90;4.50;;;4.50;99.90;;;;;;5040570;28;20689;-75
2023/11/20 07:23:38;;;;;;;4.50;4.20;;;4.50;99.90;;;;;;5037964;28;20227;-75
2023/11/20 07:26:05;;;;;;;4.47;4.18;;;4.50;99.90;;;;;;5039945;28;20215;-75
2023/11/20 07:28:33;;;;;;;4.45;4.15;;;4.60;99.90;;;;;;5039693;28;20215;-75
2023/11/20 07:31:00;;;;;;;4.50;4.20;;;4.60;99.90;;;;;;5040675;28;20203;-76
2023/11/20 07:33:27;;;;;;;4.30;4.00;;;4.60;99.90;;;;;;5042439;28;20761;-76
2023/11/20 07:35:54;;;;;;;3.75;3.50;;;4.70;99.90;;;;;;5040087;28;20249;-75
2023/11/20 07:38:22;;;;;;;3.58;3.38;;;4.70;99.90;;;;;;5041777;28;20226;-75
2023/11/20 07:40:51;;;;;;;3.75;3.55;;;4.80;99.90;;;;;;5037868;28;20199;-75
2023/11/20 07:43:18;;;;;;;4.57;4.18;;;4.90;99.90;;;;;;5039787;28;20226;-75
2023/11/20 07:45:46;;;;;;;4.63;4.32;;;4.90;99.90;;;;;;5039934;28;20214;-75
2023/11/20 07:48:13;;;;;;;4.88;4.53;;;4.90;99.90;;;;;;5038285;28;20222;-75
2023/11/20 07:50:39;;;;;;;5.97;5.57;;;5.00;99.90;;;;;;5041318;28;20218;-75
2023/11/20 07:53:06;;;;;;;7.35;6.75;;;5.00;99.90;;;;;;5036619;28;20223;-76
2023/11/20 07:55:33;;;;;;;5.55;5.15;;;5.50;99.90;;;;;;5039863;28;20195;-76
2023/11/20 07:58:01;;;;;;;5.68;5.18;;;6.00;99.90;;;;;;5036808;28;20264;-75
2023/11/20 08:00:28;;;;;;;5.72;5.32;;;7.10;99.90;;;;;;5036334;28;20203;-76
2023/11/20 08:02:55;;;;;;;5.90;5.47;;;8.10;99.90;;;;;;5037239;28;20304;-75
2023/11/20 08:05:22;;;;;;;5.20;4.80;;;9.00;99.90;;;;;;5038939;28;20280;-76
2023/11/20 08:07:49;;;;;;;4.63;4.22;;;9.70;99.90;;;;;;5038554;28;20272;-75
2023/11/20 08:10:18;;;;;;;4.20;3.85;;;10.20;99.90;;;;;;5038551;28;20199;-75
2023/11/20 08:12:46;;;;;;;4.03;3.72;;;10.70;99.90;;;;;;5037625;28;20305;-76
2023/11/20 08:15:15;;;;;;;5.80;5.30;;;11.10;99.90;;;;;;5036994;28;20313;-76
2023/11/20 08:17:42;;;;;;;5.50;5.00;;;11.00;99.90;;;;;;5039919;28;20700;-77
2023/11/20 08:20:10;;;;;;;5.20;4.80;;;10.70;99.90;;;;;;5035551;28;20639;-75
2023/11/20 08:22:38;;;;;;;4.20;3.90;;;10.50;99.90;;;;;;5036107;28;20237;-75
2023/11/20 08:25:05;;;;;;;4.45;4.05;;;10.30;99.90;;;;;;5033852;28;20221;-75
2023/11/20 08:27:33;;;;;;;4.75;4.45;;;10.40;99.90;;;;;;5037672;28;20226;-77
2023/11/20 08:30:00;;;;;;;5.32;4.82;;;10.70;99.90;;;;;;5037815;28;20198;-77
2023/11/20 08:32:29;;;;;;;5.63;5.13;;;11.10;99.90;;;;;;5035804;28;20226;-76
2023/11/20 08:34:56;;;;;;;4.82;4.43;;;11.50;99.90;;;;;;5035653;28;20807;-76
2023/11/20 08:37:23;;;;;;;4.88;4.30;;;12.10;99.90;;;;;;5037116;28;20307;-75
2023/11/20 08:39:50;;;;;;;4.18;3.65;;;12.40;99.90;;;;;;5037233;28;22182;-76
2023/11/20 08:42:18;;;;;;;4.97;4.05;;;12.60;99.90;;;;;;5033192;28;20221;-76
2023/11/20 08:44:45;;;;;;;4.88;4.28;;;12.90;99.90;;;;;;5019742;28;20198;-75
2023/11/20 08:47:12;;;;;;;4.25;3.92;;;13.20;99.90;;;;;;5027279;28;20640;-74
2023/11/20 08:49:42;;;;;;;4.40;4.10;;;13.30;99.90;;;;;;5042049;28;20290;-76
2023/11/20 08:52:09;;;;;;;5.47;4.90;;;13.10;99.90;;;;;;5039004;28;20725;-77
2023/11/20 08:54:36;;;;;;;5.15;4.72;;;13.40;99.90;;;;;;5038897;28;20856;-77
2023/11/20 08:57:03;;;;;;;6.93;4.68;;;13.60;99.90;;;;;;5040019;28;20284;-74
2023/11/20 08:59:30;;;;;;;5.72;4.07;;;13.90;99.90;;;;;;5042653;28;20202;-75
2023/11/20 09:01:57;;;;;;;4.40;3.63;;;14.40;99.90;;;;;;5038792;28;20287;-76
2023/11/20 09:04:26;;;;;;;4.32;3.92;;;15.30;99.90;;;;;;5041182;28;20219;-76
2023/11/20 09:06:54;;;;;;;5.38;4.88;;;16.50;99.90;;;;;;5041574;28;20235;-77
2023/11/20 09:09:21;;;;;;;6.13;4.72;;;17.70;99.90;;;;;;5041176;28;20689;-76
2023/11/20 09:11:49;;;;;;;5.82;4.63;;;19.00;99.90;;;;;;5037670;28;20701;-76
2023/11/20 09:14:16;;;;;;;4.50;4.10;;;20.20;99.90;;;;;;5036236;28;20328;-75
2023/11/20 09:16:44;;;;;;;4.50;4.10;;;20.90;99.90;;;;;;5036344;28;20213;-77
2023/11/20 09:19:11;;;;;;;5.47;3.80;;;21.30;99.90;;;;;;5043727;28;20199;-80
2023/11/20 09:21:38;;;;;;;3.70;3.40;;;21.70;99.90;;;;;;5043759;28;20202;-76
2023/11/20 09:24:07;;;;;;;4.32;3.70;;;22.00;99.90;;;;;;5048997;28;20263;-79
2023/11/20 09:26:34;;;;;;;3.83;3.53;;;22.30;99.90;;;;;;5048135;28;20215;-76
2023/11/20 09:29:01;;;;;;;3.90;3.55;;;21.60;99.90;;;;;;5046044;28;20342;-77
2023/11/20 09:31:28;;;;;;;3.65;3.35;;;20.70;99.90;;;;;;5048130;28;20211;-77
2023/11/20 09:33:56;;;;;;;4.10;3.80;;;19.70;99.90;;;;;;5050194;28;20819;-76
2023/11/20 09:36:23;;;;;;;5.80;4.30;;;19.00;99.90;;;;;;5049774;28;20215;-76
2023/11/20 09:38:50;;;;;;;4.05;3.28;;;17.90;99.90;;;;;;5048858;28;20223;-76
2023/11/20 09:41:18;;;;;;;4.15;3.83;;;17.00;99.90;;;;;;5052115;28;20195;-78
2023/11/20 09:43:45;;;;;;;4.28;3.95;;;16.20;99.90;;;;;;5045848;28;20219;-76
2023/11/20 09:46:14;;;;;;;3.70;3.40;;;15.70;99.90;;;;;;5047145;28;20689;-78
2023/11/20 09:48:43;;;;;;;4.10;3.67;;;15.00;99.90;;;;;;5046895;28;20280;-77
2023/11/20 09:51:11;;;;;;;5.63;3.80;;;14.90;99.90;;;;;;5053583;28;20734;-76
2023/11/20 09:53:39;;;;;;;4.78;4.10;;;15.00;99.90;;;;;;5044846;28;20711;-77
2023/11/20 09:56:09;;;;;;;4.63;4.20;;;15.00;99.90;;;;;;5049498;28;20246;-78
2023/11/20 10:00:15;;;;;;;4.93;4.18;;;14.80;99.90;;;;;;5113023;27;20272;-86
2023/11/20 10:02:42;;;;;;;4.25;3.83;;;14.80;99.90;;;;;;5099045;27;20300;-85
2023/11/20 10:05:10;;;;;;;3.75;3.45;;;15.00;99.90;;;;;;5055046;28;20199;-84
2023/11/20 10:07:40;;;;;;;4.30;3.90;;;14.80;99.90;;;;;;5056415;28;20240;-85
2023/11/20 10:10:08;;;;;;;3.38;3.17;;;14.80;99.90;;;;;;5058305;28;20233;-88
2023/11/20 10:12:38;;;;;;;5.13;3.90;;;15.00;99.90;;;;;;5065468;28;20301;-86
2023/11/20 10:15:06;;;;;;;3.75;3.40;;;15.20;99.90;;;;;;5082207;28;20262;-86
2023/11/20 10:17:37;;;;;;;3.90;3.55;;;15.20;99.90;;;;;;5080590;28;20363;-81
2023/11/20 10:20:09;;;;;;;3.80;3.40;;;15.40;99.90;;;;;;5079631;28;20218;-80
2023/11/20 10:22:37;;;;;;;3.92;3.63;;;15.50;99.90;;;;;;5077873;28;20229;-87
2023/11/20 10:25:06;;;;;;;4.97;3.40;;;15.40;99.90;;;;;;5072317;28;20224;-90
2023/11/20 10:27:33;;;;;;;3.55;3.35;;;15.30;99.90;;;;;;5078284;28;20792;-81
2023/11/20 10:30:00;;;;;;;3.72;3.42;;;15.40;99.90;;;;;;5076509;28;20281;-79
2023/11/20 10:32:27;;;;;;;3.92;3.63;;;15.70;99.90;;;;;;5080797;28;20635;-83
2023/11/20 10:35:13;;;;;;;5.38;3.70;;;15.90;99.90;;;;;;5080671;28;20221;-83
2023/11/20 10:37:53;;;;;;;3.58;3.28;;;15.50;99.90;;;;;;5078564;28;20271;-88
2023/11/20 10:40:20;;;;;;;3.55;3.25;;;15.60;99.90;;;;;;5080318;28;20247;-78
2023/11/20 10:42:48;;;;;;;4.30;3.90;;;15.80;99.90;;;;;;5081153;27;20222;-79
2023/11/20 10:45:15;;;;;;;3.45;3.17;;;15.60;99.90;;;;;;5079976;28;20208;-87
2023/11/20 10:47:43;;;;;;;3.80;3.50;;;15.50;99.90;;;;;;5080542;28;21105;-84
2023/11/20 10:50:15;;;;;;;3.80;3.50;;;15.80;99.90;;;;;;5080238;28;20824;-85
2023/11/20 10:52:41;;;;;;;3.65;3.28;;;16.30;99.90;;;;;;5072544;28;20230;-84
2023/11/20 10:55:12;;;;;;;3.78;3.47;;;16.30;99.90;;;;;;5078600;28;20297;-85
2023/11/20 10:57:40;;;;;;;4.15;3.65;;;15.80;99.90;;;;;;5077025;28;20245;-85
2023/11/20 11:00:11;;;;;;;3.65;3.35;;;15.60;99.90;;;;;;5078386;28;20267;-81
2023/11/20 11:02:41;;;;;;;4.00;3.60;;;15.10;99.90;;;;;;5077479;28;20306;-88
2023/11/20 11:05:08;;;;;;;3.50;3.20;;;14.70;99.90;;;;;;5078027;28;20262;-84
2023/11/20 11:07:42;;;;;;;3.83;3.00;;;14.40;99.90;;;;;;5077624;28;20312;-84
2023/11/20 11:10:11;;;;;;;4.18;3.83;;;13.70;99.90;;;;;;5067831;28;20194;-86
2023/11/20 11:12:44;;;;;;;5.28;3.42;;;13.20;99.90;;;;;;5065728;28;20218;-84
2023/11/20 11:15:13;;;;;;;6.80;3.63;;;13.00;99.90;;;;;;5066926;28;20203;-79
2023/11/20 11:17:47;;;;;;;5.25;4.00;;;13.20;99.90;;;;;;5062064;28;20222;-87
2023/11/20 11:20:18;;;;;;;4.15;3.85;;;13.00;99.90;;;;;;5064140;28;20209;-83
2023/11/20 11:22:55;;;;;;;4.05;3.55;;;12.80;99.90;;;;;;5062491;28;20257;-87
2023/11/20 11:25:26;;;;;;;3.85;3.55;;;12.30;99.90;;;;;;5063820;28;20205;-79
2023/11/20 11:27:56;;;;;;;4.18;3.40;;;11.90;99.90;;;;;;5069607;28;20793;-83
2023/11/20 11:30:27;;;;;;;4.80;4.10;;;11.60;99.90;;;;;;5066166;28;20265;-90
2023/11/20 11:33:30;;;;;;;4.75;3.50;;;11.00;99.90;;;;;;5069063;28;20234;-80
2023/11/20 11:36:20;;;;;;;3.55;3.25;;;10.80;99.90;;;;;;5042234;28;20256;-85
2023/11/20 11:39:13;;;;;;;4.55;3.85;;;10.40;99.90;;;;;;5067006;28;20250;-86
2023/11/20 11:41:58;;;;;;;4.30;3.90;;;10.00;99.90;;;;;;5061129;28;20234;-84
2023/11/20 11:44:40;;;;;;;4.07;3.78;;;9.80;99.90;;;;;;5064566;28;20214;-81
2023/11/20 11:47:10;;;;;;;4.03;3.72;;;9.70;99.90;;;;;;5067157;28;20230;-86
2023/11/20 11:49:40;;;;;;;4.60;4.20;;;9.70;99.90;;;;;;5068822;28;20439;-84
2023/11/20 11:52:08;;;;;;;5.03;4.60;;;9.50;99.90;;;;;;5065972;28;20258;-82
2023/11/20 11:54:36;;;;;;;4.78;4.30;;;9.10;99.90;;;;;;5064277;28;20198;-82
2023/11/20 11:57:11;;;;;;;4.88;4.38;;;8.80;99.90;;;;;;5070395;28;20809;-88
2023/11/20 11:59:39;;;;;;;5.05;4.65;;;8.90;99.90;;;;;;5064549;28;20270;-83
2023/11/20 12:02:07;;;;;;;4.95;4.47;;;8.90;99.90;;;;;;5066128;28;20720;-84
2023/11/20 12:05:03;;;;;;;4.78;4.38;;;9.00;99.90;;;;;;5069038;28;20782;-86
2023/11/20 12:07:59;;;;;;;5.15;4.32;;;9.00;99.90;;;;;;5059456;28;20225;-84
2023/11/20 12:10:50;;;;;;;4.72;4.32;;;9.00;99.90;;;;;;5061519;28;20293;-85
2023/11/20 12:13:18;;;;;;;4.63;4.22;;;8.90;99.90;;;;;;5062478;28;20233;-84
2023/11/20 12:15:47;;;;;;;5.70;5.20;;;9.00;99.90;;;;;;5064720;28;20210;-82
2023/11/20 12:18:17;;;;;;;5.95;5.35;;;9.00;99.90;;;;;;5062810;28;20222;-83
2023/11/20 12:21:04;;;;;;;6.90;6.22;;;9.00;99.90;;;;;;5062809;28;20598;-83
2023/11/20 12:23:32;;;;;;;7.10;6.40;;;8.70;99.90;;;;;;5056200;28;20226;-82
2023/11/20 12:26:02;;;;;;;6.28;5.75;;;8.50;99.90;;;;;;5067811;28;20198;-81
2023/11/20 12:28:32;;;;;;;6.32;5.75;;;8.30;99.90;;;;;;5064452;28;20214;-81
2023/11/20 12:31:03;;;;;;;6.25;5.75;;;8.20;99.90;;;;;;5068042;28;20225;-82
2023/11/20 12:33:31;;;;;;;5.85;5.25;;;8.20;99.90;;;;;;5068498;28;20218;-82
2023/11/20 12:36:00;;;;;;;6.70;6.05;;;8.20;99.90;;;;;;5066684;28;20284;-88
2023/11/20 12:38:28;;;;;;;6.35;5.32;;;8.30;99.90;;;;;;5065978;28;20214;-83
2023/11/20 12:40:55;;;;;;;5.90;5.43;;;8.40;99.90;;;;;;5065962;28;20234;-82
2023/11/20 12:43:25;;;;;;;4.95;4.55;;;8.30;99.90;;;;;;5058185;28;20222;-78
2023/11/20 12:45:52;;;;;;;6.90;5.95;;;8.20;99.90;;;;;;5064177;28;20206;-83
2023/11/20 12:48:19;;;;;;;5.80;5.30;;;8.10;99.90;;;;;;5063263;28;21644;-79
2023/11/20 12:50:49;;;;;;;5.65;5.18;;;8.00;99.90;;;;;;5068834;28;20206;-83
2023/11/20 12:53:17;;;;;;;6.78;6.10;;;8.20;99.90;;;;;;5064223;28;20233;-82
2023/11/20 12:55:45;;;;;;;6.10;5.57;;;8.50;99.90;;;;;;5066370;28;20202;-86
2023/11/20 12:58:12;;;;;;;5.50;5.00;;;8.60;99.90;;;;;;5061016;28;20246;-81
2023/11/20 13:00:42;;;;;;;7.03;5.15;;;8.80;99.90;;;;;;5063887;28;20242;-79
2023/11/20 13:03:14;;;;;;;5.53;5.03;;;9.00;99.90;;;;;;5061685;28;20724;-85